San Diego, California
Traffic Map
Current Weather Conditions
San Diego, California
Broken Clouds
Broken Clouds
17°
Feels Like: 17°
Wind Chill: 17° Ceiling: 20000
Heat Index: 17° Visibility: 10mi
Dew Point: Wind: 3mph
Humidity: 35% Direction: 10° (N)
Pressure: 30.03in Gusts: 0mph
Raw Report DataKSAN 260751Z 01003KT 10SM SCT150 BKN200 17/02 A3003 RMK AO2 SLP168 T01720017 402500117
Traffic Incident Summary
Active as of:
Severity:
Category:
InformationThere was an issue retrieving the traffic information for this location. Please try a different location or try again shortly.
Advertisements
Track Severe Weather on mobile